sensor_id;sensor_type;location;lat;lon;timestamp;pressure;altitude;pressure_sealevel;temperature;humidity
63552;BME280;49698;48.072;7.800;2023-06-19T00:01:21;99126.88;;;20.85;65.94
63552;BME280;49698;48.072;7.800;2023-06-19T00:03:49;99135.94;;;20.89;66.25
63552;BME280;49698;48.072;7.800;2023-06-19T00:06:17;99144.56;;;20.91;66.48
63552;BME280;49698;48.072;7.800;2023-06-19T00:08:45;99142.25;;;20.93;66.47
63552;BME280;49698;48.072;7.800;2023-06-19T00:11:13;99146.16;;;20.92;66.84
63552;BME280;49698;48.072;7.800;2023-06-19T00:13:41;99147.31;;;20.91;66.80
63552;BME280;49698;48.072;7.800;2023-06-19T00:16:10;99142.56;;;20.88;66.97
63552;BME280;49698;48.072;7.800;2023-06-19T00:18:38;99149.50;;;20.85;67.26
63552;BME280;49698;48.072;7.800;2023-06-19T00:21:07;99158.41;;;20.82;67.59
63552;BME280;49698;48.072;7.800;2023-06-19T00:23:36;99166.53;;;20.79;67.55
63552;BME280;49698;48.072;7.800;2023-06-19T00:26:04;99163.00;;;20.78;67.83
63552;BME280;49698;48.072;7.800;2023-06-19T00:28:33;99174.63;;;20.75;68.07
63552;BME280;49698;48.072;7.800;2023-06-19T00:31:01;99170.34;;;20.74;68.36
63552;BME280;49698;48.072;7.800;2023-06-19T00:33:30;99169.47;;;20.70;68.86
63552;BME280;49698;48.072;7.800;2023-06-19T00:35:58;99156.09;;;20.65;69.15
63552;BME280;49698;48.072;7.800;2023-06-19T00:38:27;99157.16;;;20.60;69.47
63552;BME280;49698;48.072;7.800;2023-06-19T00:40:55;99163.34;;;20.57;69.80
63552;BME280;49698;48.072;7.800;2023-06-19T00:43:23;99157.00;;;20.53;69.76
63552;BME280;49698;48.072;7.800;2023-06-19T00:45:51;99163.59;;;20.52;70.19
63552;BME280;49698;48.072;7.800;2023-06-19T00:48:20;99174.09;;;20.50;70.31
63552;BME280;49698;48.072;7.800;2023-06-19T00:50:51;99192.03;;;20.51;70.24
63552;BME280;49698;48.072;7.800;2023-06-19T00:53:19;99197.97;;;20.53;69.98
63552;BME280;49698;48.072;7.800;2023-06-19T00:55:48;99205.78;;;20.55;69.96
63552;BME280;49698;48.072;7.800;2023-06-19T00:58:20;99213.63;;;20.56;70.16
63552;BME280;49698;48.072;7.800;2023-06-19T01:00:49;99213.28;;;20.58;69.88
63552;BME280;49698;48.072;7.800;2023-06-19T01:03:23;99218.38;;;20.59;69.64
63552;BME280;49698;48.072;7.800;2023-06-19T01:05:54;99215.31;;;20.61;69.56
63552;BME280;49698;48.072;7.800;2023-06-19T01:08:37;99228.59;;;20.62;69.46
63552;BME280;49698;48.072;7.800;2023-06-19T01:11:09;99236.44;;;20.64;69.22
63552;BME280;49698;48.072;7.800;2023-06-19T01:13:48;99244.97;;;20.62;69.85
63552;BME280;49698;48.072;7.800;2023-06-19T01:16:21;99249.47;;;20.55;70.29
63552;BME280;49698;48.072;7.800;2023-06-19T01:18:50;99247.00;;;20.49;71.13
63552;BME280;49698;48.072;7.800;2023-06-19T01:21:19;99242.13;;;20.43;71.74
63552;BME280;49698;48.072;7.800;2023-06-19T01:23:49;99260.72;;;20.37;72.50
63552;BME280;49698;48.072;7.800;2023-06-19T01:26:17;99248.38;;;20.27;73.71
63552;BME280;49698;48.072;7.800;2023-06-19T01:28:45;99252.34;;;20.14;75.02
63552;BME280;49698;48.072;7.800;2023-06-19T01:31:18;99252.84;;;20.04;75.74
63552;BME280;49698;48.072;7.800;2023-06-19T01:33:49;99259.25;;;19.96;76.75
63552;BME280;49698;48.072;7.800;2023-06-19T01:36:19;99257.81;;;19.86;77.55
63552;BME280;49698;48.072;7.800;2023-06-19T01:38:50;99263.41;;;19.77;78.61
63552;BME280;49698;48.072;7.800;2023-06-19T01:41:20;99261.31;;;19.71;79.24
63552;BME280;49698;48.072;7.800;2023-06-19T01:43:49;99253.72;;;19.64;79.76
63552;BME280;49698;48.072;7.800;2023-06-19T01:46:18;99253.56;;;19.61;80.20
63552;BME280;49698;48.072;7.800;2023-06-19T01:48:46;99243.72;;;19.56;80.69
63552;BME280;49698;48.072;7.800;2023-06-19T01:51:15;99236.47;;;19.48;81.54
63552;BME280;49698;48.072;7.800;2023-06-19T01:53:43;99230.81;;;19.41;82.47
63552;BME280;49698;48.072;7.800;2023-06-19T01:56:13;99216.50;;;19.31;83.29
63552;BME280;49698;48.072;7.800;2023-06-19T01:58:41;99213.16;;;19.22;83.88
63552;BME280;49698;48.072;7.800;2023-06-19T02:01:10;99217.94;;;19.13;84.91
63552;BME280;49698;48.072;7.800;2023-06-19T02:03:37;99229.31;;;19.03;85.73
63552;BME280;49698;48.072;7.800;2023-06-19T02:06:05;99227.94;;;18.97;86.48
63552;BME280;49698;48.072;7.800;2023-06-19T02:08:33;99232.94;;;18.95;86.90
63552;BME280;49698;48.072;7.800;2023-06-19T02:11:01;99234.09;;;18.94;87.12
63552;BME280;49698;48.072;7.800;2023-06-19T02:13:33;99236.09;;;18.97;87.29
63552;BME280;49698;48.072;7.800;2023-06-19T02:16:01;99227.63;;;18.98;87.45
63552;BME280;49698;48.072;7.800;2023-06-19T02:18:29;99240.09;;;18.99;87.59
63552;BME280;49698;48.072;7.800;2023-06-19T02:20:57;99240.44;;;18.98;87.69
63552;BME280;49698;48.072;7.800;2023-06-19T02:23:25;99249.72;;;18.97;88.47
63552;BME280;49698;48.072;7.800;2023-06-19T02:25:52;99256.69;;;18.94;88.63
63552;BME280;49698;48.072;7.800;2023-06-19T02:28:20;99252.25;;;18.90;89.05
63552;BME280;49698;48.072;7.800;2023-06-19T02:30:52;99240.09;;;18.87;89.29
63552;BME280;49698;48.072;7.800;2023-06-19T02:33:20;99240.09;;;18.87;89.52
63552;BME280;49698;48.072;7.800;2023-06-19T02:35:48;99233.75;;;18.83;89.64
63552;BME280;49698;48.072;7.800;2023-06-19T02:38:16;99232.97;;;18.83;89.92
63552;BME280;49698;48.072;7.800;2023-06-19T02:40:50;99223.66;;;18.84;90.17
63552;BME280;49698;48.072;7.800;2023-06-19T02:43:18;99223.66;;;18.84;90.28
63552;BME280;49698;48.072;7.800;2023-06-19T02:45:46;99223.19;;;18.81;90.42
63552;BME280;49698;48.072;7.800;2023-06-19T02:48:15;99220.81;;;18.80;90.68
63552;BME280;49698;48.072;7.800;2023-06-19T02:50:43;99224.34;;;18.80;90.65
63552;BME280;49698;48.072;7.800;2023-06-19T02:53:11;99218.09;;;18.80;90.98
63552;BME280;49698;48.072;7.800;2023-06-19T02:55:39;99213.78;;;18.79;91.00
63552;BME280;49698;48.072;7.800;2023-06-19T02:58:07;99220.38;;;18.78;91.33
63552;BME280;49698;48.072;7.800;2023-06-19T03:00:37;99216.84;;;18.77;91.37
63552;BME280;49698;48.072;7.800;2023-06-19T03:03:06;99201.66;;;18.76;91.65
63552;BME280;49698;48.072;7.800;2023-06-19T03:05:38;99201.66;;;18.76;91.67
63552;BME280;49698;48.072;7.800;2023-06-19T03:08:06;99205.50;;;18.75;92.35
63552;BME280;49698;48.072;7.800;2023-06-19T03:10:34;99204.72;;;18.75;92.62
63552;BME280;49698;48.072;7.800;2023-06-19T03:13:02;99197.66;;;18.74;92.45
63552;BME280;49698;48.072;7.800;2023-06-19T03:15:31;99191.44;;;18.73;92.63
63552;BME280;49698;48.072;7.800;2023-06-19T03:17:59;99187.91;;;18.73;92.88
63552;BME280;49698;48.072;7.800;2023-06-19T03:20:30;99189.84;;;18.72;93.28
63552;BME280;49698;48.072;7.800;2023-06-19T03:22:59;99198.03;;;18.72;93.41
63552;BME280;49698;48.072;7.800;2023-06-19T03:25:28;99198.38;;;18.71;93.66
63552;BME280;49698;48.072;7.800;2023-06-19T03:28:02;99196.72;;;18.70;93.58
63552;BME280;49698;48.072;7.800;2023-06-19T03:30:30;99204.13;;;18.69;93.66
63552;BME280;49698;48.072;7.800;2023-06-19T03:32:59;99206.84;;;18.69;93.84
63552;BME280;49698;48.072;7.800;2023-06-19T03:35:40;99202.19;;;18.70;93.67
63552;BME280;49698;48.072;7.800;2023-06-19T03:38:15;99203.03;;;18.70;93.81
63552;BME280;49698;48.072;7.800;2023-06-19T03:40:46;99197.59;;;18.70;93.89
63552;BME280;49698;48.072;7.800;2023-06-19T03:43:15;99204.91;;;18.70;94.03
63552;BME280;49698;48.072;7.800;2023-06-19T03:45:43;99206.84;;;18.69;94.33
63552;BME280;49698;48.072;7.800;2023-06-19T03:48:11;99207.63;;;18.70;94.52
63552;BME280;49698;48.072;7.800;2023-06-19T03:50:39;99205.75;;;18.70;94.65
63552;BME280;49698;48.072;7.800;2023-06-19T03:53:07;99211.63;;;18.72;94.93
63552;BME280;49698;48.072;7.800;2023-06-19T03:55:38;99202.31;;;18.73;95.27
63552;BME280;49698;48.072;7.800;2023-06-19T03:58:06;99198.91;;;18.76;95.32
63552;BME280;49698;48.072;7.800;2023-06-19T04:00:34;99204.38;;;18.76;95.38
63552;BME280;49698;48.072;7.800;2023-06-19T04:03:02;99203.22;;;18.77;95.71
63552;BME280;49698;48.072;7.800;2023-06-19T04:05:30;99207.19;;;18.80;95.72
63552;BME280;49698;48.072;7.800;2023-06-19T04:07:58;99202.53;;;18.80;95.64
63552;BME280;49698;48.072;7.800;2023-06-19T04:10:26;99210.41;;;18.82;95.71
63552;BME280;49698;48.072;7.800;2023-06-19T04:12:56;99211.97;;;18.83;95.66
63552;BME280;49698;48.072;7.800;2023-06-19T04:15:24;99209.69;;;18.85;95.72
63552;BME280;49698;48.072;7.800;2023-06-19T04:17:52;99219.78;;;18.85;95.69
63552;BME280;49698;48.072;7.800;2023-06-19T04:20:20;99215.94;;;18.86;95.84
63552;BME280;49698;48.072;7.800;2023-06-19T04:22:48;99212.09;;;18.87;95.76
63552;BME280;49698;48.072;7.800;2023-06-19T04:25:18;99214.34;;;18.85;95.70
63552;BME280;49698;48.072;7.800;2023-06-19T04:27:46;99217.06;;;18.85;96.32
63552;BME280;49698;48.072;7.800;2023-06-19T04:30:15;99229.09;;;18.84;96.69
63552;BME280;49698;48.072;7.800;2023-06-19T04:32:43;99226.25;;;18.80;96.65
63552;BME280;49698;48.072;7.800;2023-06-19T04:35:11;99220.38;;;18.78;96.87
63552;BME280;49698;48.072;7.800;2023-06-19T04:37:39;99219.25;;;18.79;96.97
63552;BME280;49698;48.072;7.800;2023-06-19T04:40:08;99208.00;;;18.80;97.05
63552;BME280;49698;48.072;7.800;2023-06-19T04:42:37;99206.97;;;18.85;96.96
63552;BME280;49698;48.072;7.800;2023-06-19T04:45:07;99207.44;;;18.87;97.06
63552;BME280;49698;48.072;7.800;2023-06-19T04:47:37;99201.63;;;18.89;97.00
63552;BME280;49698;48.072;7.800;2023-06-19T04:50:14;99185.75;;;18.91;97.32
63552;BME280;49698;48.072;7.800;2023-06-19T04:52:43;99184.16;;;18.90;97.37
63552;BME280;49698;48.072;7.800;2023-06-19T04:55:11;99173.28;;;18.90;97.83
63552;BME280;49698;48.072;7.800;2023-06-19T04:57:39;99174.84;;;18.91;97.89
63552;BME280;49698;48.072;7.800;2023-06-19T05:00:08;99171.78;;;18.92;97.94
63552;BME280;49698;48.072;7.800;2023-06-19T05:02:38;99168.84;;;18.97;98.07
63552;BME280;49698;48.072;7.800;2023-06-19T05:05:11;99170.06;;;19.00;98.15
63552;BME280;49698;48.072;7.800;2023-06-19T05:07:39;99167.19;;;19.09;98.08
63552;BME280;49698;48.072;7.800;2023-06-19T05:10:11;99165.25;;;19.21;97.49
63552;BME280;49698;48.072;7.800;2023-06-19T05:12:38;99170.97;;;19.32;97.02
63552;BME280;49698;48.072;7.800;2023-06-19T05:15:08;99163.34;;;19.38;96.93
63552;BME280;49698;48.072;7.800;2023-06-19T05:17:37;99164.25;;;19.42;96.75
63552;BME280;49698;48.072;7.800;2023-06-19T05:20:06;99164.25;;;19.42;96.91
63552;BME280;49698;48.072;7.800;2023-06-19T05:22:34;99167.75;;;19.42;97.24
63552;BME280;49698;48.072;7.800;2023-06-19T05:25:04;99170.16;;;19.44;97.39
63552;BME280;49698;48.072;7.800;2023-06-19T05:27:32;99171.38;;;19.46;97.78
63552;BME280;49698;48.072;7.800;2023-06-19T05:30:00;99166.38;;;19.48;97.53
63552;BME280;49698;48.072;7.800;2023-06-19T05:32:29;99160.56;;;19.50;97.65
63552;BME280;49698;48.072;7.800;2023-06-19T05:34:58;99164.78;;;19.47;97.78
63552;BME280;49698;48.072;7.800;2023-06-19T05:37:26;99164.00;;;19.47;98.21
63552;BME280;49698;48.072;7.800;2023-06-19T05:39:54;99164.00;;;19.47;98.05
63552;BME280;49698;48.072;7.800;2023-06-19T05:42:25;99164.44;;;19.49;98.24
63552;BME280;49698;48.072;7.800;2023-06-19T05:44:53;99175.78;;;19.51;98.26
63552;BME280;49698;48.072;7.800;2023-06-19T05:47:21;99175.78;;;19.51;98.52
63552;BME280;49698;48.072;7.800;2023-06-19T05:49:52;99183.72;;;19.56;98.34
63552;BME280;49698;48.072;7.800;2023-06-19T05:52:21;99190.31;;;19.67;97.96
63552;BME280;49698;48.072;7.800;2023-06-19T05:54:49;99189.78;;;19.77;97.50
63552;BME280;49698;48.072;7.800;2023-06-19T05:57:19;99198.50;;;19.83;97.20
63552;BME280;49698;48.072;7.800;2023-06-19T05:59:48;99191.56;;;19.86;96.89
63552;BME280;49698;48.072;7.800;2023-06-19T06:02:17;99203.00;;;19.91;96.84
63552;BME280;49698;48.072;7.800;2023-06-19T06:04:45;99205.84;;;19.95;96.40
63552;BME280;49698;48.072;7.800;2023-06-19T06:07:13;99201.25;;;19.99;96.28
63552;BME280;49698;48.072;7.800;2023-06-19T06:09:43;99203.03;;;20.07;95.72
63552;BME280;49698;48.072;7.800;2023-06-19T06:12:11;99203.91;;;20.11;95.11
63552;BME280;49698;48.072;7.800;2023-06-19T06:14:40;99196.16;;;20.13;94.65
63552;BME280;49698;48.072;7.800;2023-06-19T06:17:08;99191.66;;;20.21;94.11
63552;BME280;49698;48.072;7.800;2023-06-19T06:19:36;99193.88;;;20.31;93.49
63552;BME280;49698;48.072;7.800;2023-06-19T06:22:05;99200.75;;;20.41;92.89
63552;BME280;49698;48.072;7.800;2023-06-19T06:24:33;99192.50;;;20.53;92.11
63552;BME280;49698;48.072;7.800;2023-06-19T06:27:03;99201.28;;;20.62;91.48
63552;BME280;49698;48.072;7.800;2023-06-19T06:29:31;99209.28;;;20.71;90.96
63552;BME280;49698;48.072;7.800;2023-06-19T06:32:04;99208.81;;;20.85;90.21
63552;BME280;49698;48.072;7.800;2023-06-19T06:34:33;99223.31;;;21.05;89.42
63552;BME280;49698;48.072;7.800;2023-06-19T06:37:01;99211.25;;;21.25;88.39
63552;BME280;49698;48.072;7.800;2023-06-19T06:39:31;99223.00;;;21.45;87.09
63552;BME280;49698;48.072;7.800;2023-06-19T06:41:59;99220.50;;;21.56;86.44
63552;BME280;49698;48.072;7.800;2023-06-19T06:44:28;99226.41;;;21.58;86.36
63552;BME280;49698;48.072;7.800;2023-06-19T06:46:56;99230.09;;;21.65;85.86
63552;BME280;49698;48.072;7.800;2023-06-19T06:49:24;99232.66;;;21.78;85.48
63552;BME280;49698;48.072;7.800;2023-06-19T06:51:52;99225.44;;;21.89;84.83
63552;BME280;49698;48.072;7.800;2023-06-19T06:54:21;99223.13;;;21.91;84.35
63552;BME280;49698;48.072;7.800;2023-06-19T06:56:49;99232.50;;;21.90;84.35
63552;BME280;49698;48.072;7.800;2023-06-19T06:59:19;99229.91;;;21.97;84.13
63552;BME280;49698;48.072;7.800;2023-06-19T07:01:48;99239.66;;;22.17;83.30
63552;BME280;49698;48.072;7.800;2023-06-19T07:04:16;99246.44;;;22.46;82.22
63552;BME280;49698;48.072;7.800;2023-06-19T07:06:44;99250.06;;;22.77;80.56
63552;BME280;49698;48.072;7.800;2023-06-19T07:09:12;99244.63;;;23.07;79.13
63552;BME280;49698;48.072;7.800;2023-06-19T07:11:40;99246.84;;;23.25;77.50
63552;BME280;49698;48.072;7.800;2023-06-19T07:14:08;99246.47;;;23.26;77.12
63552;BME280;49698;48.072;7.800;2023-06-19T07:16:36;99242.22;;;23.29;76.54
63552;BME280;49698;48.072;7.800;2023-06-19T07:19:05;99243.03;;;23.33;75.75
63552;BME280;49698;48.072;7.800;2023-06-19T07:21:33;99242.22;;;23.29;75.14
63552;BME280;49698;48.072;7.800;2023-06-19T07:24:02;99243.50;;;23.38;75.01
63552;BME280;49698;48.072;7.800;2023-06-19T07:26:30;99238.66;;;23.58;73.68
63552;BME280;49698;48.072;7.800;2023-06-19T07:28:58;99236.53;;;23.75;73.01
63552;BME280;49698;48.072;7.800;2023-06-19T07:31:26;99241.38;;;23.88;72.72
63552;BME280;49698;48.072;7.800;2023-06-19T07:33:54;99232.91;;;24.01;72.15
63552;BME280;49698;48.072;7.800;2023-06-19T07:36:23;99240.47;;;24.14;71.28
63552;BME280;49698;48.072;7.800;2023-06-19T07:38:52;99248.34;;;24.20;71.19
63552;BME280;49698;48.072;7.800;2023-06-19T07:41:20;99247.16;;;24.17;70.78
63552;BME280;49698;48.072;7.800;2023-06-19T07:43:48;99248.63;;;24.07;70.88
63552;BME280;49698;48.072;7.800;2023-06-19T07:46:16;99243.84;;;23.97;71.02
63552;BME280;49698;48.072;7.800;2023-06-19T07:48:44;99241.84;;;23.94;71.35
63552;BME280;49698;48.072;7.800;2023-06-19T07:51:12;99237.09;;;23.91;70.80
63552;BME280;49698;48.072;7.800;2023-06-19T07:53:41;99238.56;;;23.81;71.49
63552;BME280;49698;48.072;7.800;2023-06-19T07:56:10;99233.44;;;23.80;71.17
63552;BME280;49698;48.072;7.800;2023-06-19T07:58:38;99237.53;;;23.93;70.56
63552;BME280;49698;48.072;7.800;2023-06-19T08:01:06;99237.31;;;24.12;69.67
63552;BME280;49698;48.072;7.800;2023-06-19T08:03:34;99235.56;;;24.38;68.68
63552;BME280;49698;48.072;7.800;2023-06-19T08:06:02;99238.25;;;24.75;67.49
63552;BME280;49698;48.072;7.800;2023-06-19T08:08:30;99235.03;;;25.18;66.06
63552;BME280;49698;48.072;7.800;2023-06-19T08:10:59;99235.56;;;25.48;64.45
63552;BME280;49698;48.072;7.800;2023-06-19T08:13:27;99231.69;;;25.71;63.51
63552;BME280;49698;48.072;7.800;2023-06-19T08:15:55;99231.75;;;25.81;62.74
63552;BME280;49698;48.072;7.800;2023-06-19T08:18:23;99220.00;;;25.99;62.15
63552;BME280;49698;48.072;7.800;2023-06-19T08:20:51;99216.09;;;26.21;61.33
63552;BME280;49698;48.072;7.800;2023-06-19T08:23:19;99216.09;;;26.35;60.65
63552;BME280;49698;48.072;7.800;2023-06-19T08:25:47;99216.09;;;26.43;60.12
63552;BME280;49698;48.072;7.800;2023-06-19T08:28:16;99218.06;;;26.42;59.40
63552;BME280;49698;48.072;7.800;2023-06-19T08:30:45;99208.63;;;26.36;59.24
63552;BME280;49698;48.072;7.800;2023-06-19T08:33:13;99219.66;;;26.22;59.92
63552;BME280;49698;48.072;7.800;2023-06-19T08:35:41;99215.28;;;26.03;60.17
63552;BME280;49698;48.072;7.800;2023-06-19T08:38:10;99215.66;;;25.94;60.34
63552;BME280;49698;48.072;7.800;2023-06-19T08:40:41;99218.41;;;25.98;60.18
63552;BME280;49698;48.072;7.800;2023-06-19T08:43:09;99215.69;;;26.16;59.73
63552;BME280;49698;48.072;7.800;2023-06-19T08:45:39;99211.38;;;26.36;58.84
63552;BME280;49698;48.072;7.800;2023-06-19T08:48:07;99207.47;;;26.55;57.99
63552;BME280;49698;48.072;7.800;2023-06-19T08:50:40;99209.81;;;26.64;57.17
63552;BME280;49698;48.072;7.800;2023-06-19T08:53:09;99205.88;;;26.72;57.12
63552;BME280;49698;48.072;7.800;2023-06-19T08:55:37;99208.22;;;26.84;56.91
63552;BME280;49698;48.072;7.800;2023-06-19T08:58:05;99203.50;;;26.88;56.65
63552;BME280;49698;48.072;7.800;2023-06-19T09:00:33;99201.06;;;27.04;56.34
63552;BME280;49698;48.072;7.800;2023-06-19T09:03:03;99195.16;;;27.06;55.12
63552;BME280;49698;48.072;7.800;2023-06-19T09:05:40;99203.84;;;27.12;55.21
63552;BME280;49698;48.072;7.800;2023-06-19T09:08:13;99198.69;;;27.21;54.78
63552;BME280;49698;48.072;7.800;2023-06-19T09:10:42;99198.63;;;27.35;54.02
63552;BME280;49698;48.072;7.800;2023-06-19T09:13:10;99198.59;;;27.49;53.45
63552;BME280;49698;48.072;7.800;2023-06-19T09:15:38;99198.53;;;27.56;51.93
63552;BME280;49698;48.072;7.800;2023-06-19T09:18:09;99196.91;;;27.63;51.22
63552;BME280;49698;48.072;7.800;2023-06-19T09:20:38;99201.63;;;27.76;50.19
63552;BME280;49698;48.072;7.800;2023-06-19T09:23:11;99200.72;;;27.94;48.75
63552;BME280;49698;48.072;7.800;2023-06-19T09:25:45;99195.13;;;28.04;46.81
63552;BME280;49698;48.072;7.800;2023-06-19T09:28:18;99201.44;;;28.05;46.49
63552;BME280;49698;48.072;7.800;2023-06-19T09:30:53;99191.59;;;28.00;46.09
63552;BME280;49698;48.072;7.800;2023-06-19T09:33:23;99190.44;;;27.94;46.47
63552;BME280;49698;48.072;7.800;2023-06-19T09:35:51;99190.38;;;28.05;46.17
63552;BME280;49698;48.072;7.800;2023-06-19T09:38:22;99187.91;;;28.18;45.97
63552;BME280;49698;48.072;7.800;2023-06-19T09:40:53;99184.75;;;28.19;45.43
63552;BME280;49698;48.072;7.800;2023-06-19T09:43:24;99183.88;;;28.26;45.39
63552;BME280;49698;48.072;7.800;2023-06-19T09:45:55;99179.09;;;28.37;45.04
63552;BME280;49698;48.072;7.800;2023-06-19T09:48:29;99168.66;;;28.56;44.98
63552;BME280;49698;48.072;7.800;2023-06-19T09:51:02;99179.28;;;28.61;45.17
63552;BME280;49698;48.072;7.800;2023-06-19T09:53:32;99171.38;;;28.63;45.50
63552;BME280;49698;48.072;7.800;2023-06-19T09:56:00;99172.50;;;28.65;45.06
63552;BME280;49698;48.072;7.800;2023-06-19T09:58:29;99175.69;;;28.64;45.24
63552;BME280;49698;48.072;7.800;2023-06-19T10:00:58;99174.09;;;28.66;43.99
63552;BME280;49698;48.072;7.800;2023-06-19T10:03:32;99159.84;;;28.68;42.87
63552;BME280;49698;48.072;7.800;2023-06-19T10:06:02;99164.09;;;28.76;41.62
63552;BME280;49698;48.072;7.800;2023-06-19T10:08:38;99163.25;;;28.83;40.60
63552;BME280;49698;48.072;7.800;2023-06-19T10:11:07;99162.47;;;28.82;39.32
63552;BME280;49698;48.072;7.800;2023-06-19T10:13:39;99154.16;;;28.82;39.31
63552;BME280;49698;48.072;7.800;2023-06-19T10:16:18;99154.09;;;28.89;38.20
63552;BME280;49698;48.072;7.800;2023-06-19T10:18:48;99155.63;;;28.94;38.62
63552;BME280;49698;48.072;7.800;2023-06-19T10:21:17;99146.84;;;29.03;38.70
63552;BME280;49698;48.072;7.800;2023-06-19T10:23:53;99152.75;;;29.05;38.05
63552;BME280;49698;48.072;7.800;2023-06-19T10:26:29;99150.00;;;29.05;37.85
63552;BME280;49698;48.072;7.800;2023-06-19T10:28:57;99151.88;;;29.11;37.69
63552;BME280;49698;48.072;7.800;2023-06-19T10:31:25;99151.84;;;29.15;37.31
63552;BME280;49698;48.072;7.800;2023-06-19T10:33:56;99158.16;;;29.15;37.54
63552;BME280;49698;48.072;7.800;2023-06-19T10:36:24;99157.75;;;29.17;37.23
63552;BME280;49698;48.072;7.800;2023-06-19T10:38:53;99151.38;;;29.20;37.53
63552;BME280;49698;48.072;7.800;2023-06-19T10:41:23;99148.19;;;29.21;37.45
63552;BME280;49698;48.072;7.800;2023-06-19T10:43:53;99144.25;;;29.19;37.02
63552;BME280;49698;48.072;7.800;2023-06-19T10:46:21;99143.44;;;29.22;37.39
63552;BME280;49698;48.072;7.800;2023-06-19T10:48:50;99151.75;;;29.22;37.38
63552;BME280;49698;48.072;7.800;2023-06-19T10:51:24;99145.91;;;29.16;37.54
63552;BME280;49698;48.072;7.800;2023-06-19T10:53:53;99149.06;;;29.15;37.75
63552;BME280;49698;48.072;7.800;2023-06-19T10:56:22;99141.78;;;29.28;37.06
63552;BME280;49698;48.072;7.800;2023-06-19T10:58:57;99140.44;;;29.40;36.84
63552;BME280;49698;48.072;7.800;2023-06-19T11:01:32;99135.13;;;29.53;36.92
63552;BME280;49698;48.072;7.800;2023-06-19T11:04:03;99139.09;;;29.52;36.82
63552;BME280;49698;48.072;7.800;2023-06-19T11:06:33;99137.63;;;29.43;36.93
63552;BME280;49698;48.072;7.800;2023-06-19T11:09:04;99126.56;;;29.43;37.43
63552;BME280;49698;48.072;7.800;2023-06-19T11:11:37;99116.22;;;29.47;37.03
63552;BME280;49698;48.072;7.800;2023-06-19T11:14:05;99129.53;;;29.56;37.51
63552;BME280;49698;48.072;7.800;2023-06-19T11:16:35;99123.53;;;29.61;36.99
63552;BME280;49698;48.072;7.800;2023-06-19T11:19:06;99123.09;;;29.66;36.92
63552;BME280;49698;48.072;7.800;2023-06-19T11:21:36;99121.50;;;29.65;36.91
63552;BME280;49698;48.072;7.800;2023-06-19T11:24:11;99119.41;;;29.73;36.67
63552;BME280;49698;48.072;7.800;2023-06-19T11:26:40;99111.72;;;29.84;35.88
63552;BME280;49698;48.072;7.800;2023-06-19T11:29:14;99106.13;;;29.88;36.08
63552;BME280;49698;48.072;7.800;2023-06-19T11:31:44;99109.28;;;29.90;35.91
63552;BME280;49698;48.072;7.800;2023-06-19T11:34:17;99115.47;;;29.97;35.81
63552;BME280;49698;48.072;7.800;2023-06-19T11:37:01;99109.56;;;29.95;35.87
63552;BME280;49698;48.072;7.800;2023-06-19T11:39:30;99116.47;;;29.84;35.97
63552;BME280;49698;48.072;7.800;2023-06-19T11:42:00;99112.06;;;29.63;36.35
63552;BME280;49698;48.072;7.800;2023-06-19T11:44:28;99111.34;;;29.59;36.68
63552;BME280;49698;48.072;7.800;2023-06-19T11:46:57;99114.84;;;29.63;36.53
63552;BME280;49698;48.072;7.800;2023-06-19T11:49:26;99104.06;;;29.68;36.18
63552;BME280;49698;48.072;7.800;2023-06-19T11:51:55;99111.22;;;29.66;36.64
63552;BME280;49698;48.072;7.800;2023-06-19T11:54:25;99114.47;;;29.61;36.44
63552;BME280;49698;48.072;7.800;2023-06-19T11:56:53;99105.88;;;29.52;36.65
63552;BME280;49698;48.072;7.800;2023-06-19T11:59:20;99102.09;;;29.38;36.68
63552;BME280;49698;48.072;7.800;2023-06-19T12:01:48;99097.84;;;29.30;36.50
63552;BME280;49698;48.072;7.800;2023-06-19T12:04:16;99097.50;;;29.28;36.61
63552;BME280;49698;48.072;7.800;2023-06-19T12:06:45;99100.28;;;29.28;36.80
63552;BME280;49698;48.072;7.800;2023-06-19T12:09:13;99102.09;;;29.38;36.83
63552;BME280;49698;48.072;7.800;2023-06-19T12:11:42;99106.59;;;29.56;36.64
63552;BME280;49698;48.072;7.800;2023-06-19T12:14:11;99094.47;;;29.73;36.49
63552;BME280;49698;48.072;7.800;2023-06-19T12:16:39;99090.28;;;29.88;36.17
63552;BME280;49698;48.072;7.800;2023-06-19T12:42:10;99062.50;;;29.41;35.37
63552;BME280;49698;48.072;7.800;2023-06-19T12:44:43;99057.97;;;29.55;35.49
63552;BME280;49698;48.072;7.800;2023-06-19T12:47:11;99061.66;;;29.71;35.07
63552;BME280;49698;48.072;7.800;2023-06-19T12:49:40;99061.84;;;29.84;34.80
63552;BME280;49698;48.072;7.800;2023-06-19T12:52:08;99063.19;;;30.00;34.63
63552;BME280;49698;48.072;7.800;2023-06-19T12:54:36;99070.03;;;30.15;34.44
63552;BME280;49698;48.072;7.800;2023-06-19T12:57:04;99069.16;;;30.21;34.10
63552;BME280;49698;48.072;7.800;2023-06-19T12:59:34;99062.91;;;30.17;33.63
63552;BME280;49698;48.072;7.800;2023-06-19T13:02:02;99059.72;;;30.15;33.36
63552;BME280;49698;48.072;7.800;2023-06-19T13:04:30;99064.50;;;30.15;33.36
63552;BME280;49698;48.072;7.800;2023-06-19T13:06:58;99055.97;;;30.06;33.57
63552;BME280;49698;48.072;7.800;2023-06-19T13:09:26;99060.91;;;29.94;33.67
63552;BME280;49698;48.072;7.800;2023-06-19T13:11:54;99057.19;;;29.78;33.76
63552;BME280;49698;48.072;7.800;2023-06-19T13:14:22;99056.69;;;29.63;34.00
63552;BME280;49698;48.072;7.800;2023-06-19T13:16:51;99046.94;;;29.51;34.26
63552;BME280;49698;48.072;7.800;2023-06-19T13:19:19;99049.88;;;29.40;34.51
63552;BME280;49698;48.072;7.800;2023-06-19T13:21:47;99042.88;;;29.32;34.51
63552;BME280;49698;48.072;7.800;2023-06-19T13:24:15;99042.97;;;29.25;34.99
63552;BME280;49698;48.072;7.800;2023-06-19T13:26:43;99046.25;;;29.16;35.35
63552;BME280;49698;48.072;7.800;2023-06-19T13:29:11;99049.53;;;29.08;35.51
63552;BME280;49698;48.072;7.800;2023-06-19T13:31:40;99034.66;;;28.98;35.36
63552;BME280;49698;48.072;7.800;2023-06-19T13:34:09;99033.19;;;28.86;35.53